Barton under Needwood, United Kingdom
Current Conditions -  °F | °C
As of 7:20 PM on Sunday 21 Dec 2014 (Local Time) from EGNX Reporting Station
Scattered Clouds Scattered Clouds  
Wind Chill: 52°   Ceiling: Unl
Heat Index: 52°   Visibility: 6mi
Dew Point: 46°   Wind: 17mph
Humidity: 82%   Direction: 210°SSW
Pressure: 30.03"   Gusts: NA
Location:  52.76°N, 1.72°W
Report Text: EGNX 211920Z 21015KT 9999 SCT023 SCT030 11/08 Q1017
Loading
Personal Weather Stations






























Interactive Weather Map New forecast layout! Learn more

10-Day Weather Forecast

Advertisements
Track Severe Weather on mobile